sensor_id;sensor_type;location;lat;lon;timestamp;P1;durP1;ratioP1;P2;durP2;ratioP2
14510;SDS011;7341;50.930;4.038;2022-10-18T00:03:52;11.83;;;8.70;;
14510;SDS011;7341;50.930;4.038;2022-10-18T00:12:48;11.50;;;9.30;;
14510;SDS011;7341;50.930;4.038;2022-10-18T00:15:33;11.77;;;9.33;;
14510;SDS011;7341;50.930;4.038;2022-10-18T00:18:18;9.60;;;8.63;;
14510;SDS011;7341;50.930;4.038;2022-10-18T00:20:59;11.53;;;9.23;;
14510;SDS011;7341;50.930;4.038;2022-10-18T00:27:14;9.10;;;8.23;;
14510;SDS011;7341;50.930;4.038;2022-10-18T00:32:57;9.87;;;8.97;;
14510;SDS011;7341;50.930;4.038;2022-10-18T00:35:32;12.10;;;8.57;;
14510;SDS011;7341;50.930;4.038;2022-10-18T00:38:03;13.03;;;9.20;;
14510;SDS011;7341;50.930;4.038;2022-10-18T00:40:30;11.57;;;8.73;;
14510;SDS011;7341;50.930;4.038;2022-10-18T00:43:00;10.33;;;8.53;;
14510;SDS011;7341;50.930;4.038;2022-10-18T00:45:44;12.20;;;8.60;;
14510;SDS011;7341;50.930;4.038;2022-10-18T00:53:54;15.80;;;8.70;;
14510;SDS011;7341;50.930;4.038;2022-10-18T00:56:45;9.83;;;8.57;;
14510;SDS011;7341;50.930;4.038;2022-10-18T00:59:15;14.97;;;10.43;;
14510;SDS011;7341;50.930;4.038;2022-10-18T01:01:48;11.93;;;9.00;;
14510;SDS011;7341;50.930;4.038;2022-10-18T01:07:14;12.00;;;8.40;;
14510;SDS011;7341;50.930;4.038;2022-10-18T01:09:58;9.83;;;8.77;;
14510;SDS011;7341;50.930;4.038;2022-10-18T01:12:59;11.33;;;8.90;;
14510;SDS011;7341;50.930;4.038;2022-10-18T01:18:26;8.87;;;8.00;;
14510;SDS011;7341;50.930;4.038;2022-10-18T01:27:33;12.13;;;8.43;;
14510;SDS011;7341;50.930;4.038;2022-10-18T01:30:47;9.33;;;8.40;;
14510;SDS011;7341;50.930;4.038;2022-10-18T01:33:27;11.43;;;8.80;;
14510;SDS011;7341;50.930;4.038;2022-10-18T01:38:54;12.13;;;8.73;;
14510;SDS011;7341;50.930;4.038;2022-10-18T01:44:19;10.53;;;8.47;;
14510;SDS011;7341;50.930;4.038;2022-10-18T01:47:05;14.23;;;8.97;;
14510;SDS011;7341;50.930;4.038;2022-10-18T01:49:36;13.83;;;8.80;;
14510;SDS011;7341;50.930;4.038;2022-10-18T01:52:04;11.07;;;9.20;;
14510;SDS011;7341;50.930;4.038;2022-10-18T01:54:40;10.40;;;9.30;;
14510;SDS011;7341;50.930;4.038;2022-10-18T01:57:15;11.97;;;9.40;;
14510;SDS011;7341;50.930;4.038;2022-10-18T02:00:08;10.77;;;9.03;;
14510;SDS011;7341;50.930;4.038;2022-10-18T02:02:47;11.23;;;10.03;;
14510;SDS011;7341;50.930;4.038;2022-10-18T02:08:50;13.07;;;9.60;;
14510;SDS011;7341;50.930;4.038;2022-10-18T02:14:31;12.53;;;10.60;;
14510;SDS011;7341;50.930;4.038;2022-10-18T02:23:32;15.00;;;10.93;;
14510;SDS011;7341;50.930;4.038;2022-10-18T02:26:14;14.63;;;10.73;;
14510;SDS011;7341;50.930;4.038;2022-10-18T02:28:58;11.60;;;10.30;;
14510;SDS011;7341;50.930;4.038;2022-10-18T02:31:42;14.60;;;10.13;;
14510;SDS011;7341;50.930;4.038;2022-10-18T02:34:16;15.73;;;12.23;;
14510;SDS011;7341;50.930;4.038;2022-10-18T02:36:50;21.40;;;13.53;;
14510;SDS011;7341;50.930;4.038;2022-10-18T02:39:19;18.37;;;13.23;;
14510;SDS011;7341;50.930;4.038;2022-10-18T02:41:53;15.30;;;13.80;;
14510;SDS011;7341;50.930;4.038;2022-10-18T02:44:28;18.30;;;13.63;;
14510;SDS011;7341;50.930;4.038;2022-10-18T02:46:58;18.83;;;13.80;;
14510;SDS011;7341;50.930;4.038;2022-10-18T02:52:33;17.10;;;13.40;;
14510;SDS011;7341;50.930;4.038;2022-10-18T03:06:19;19.67;;;17.53;;
14510;SDS011;7341;50.930;4.038;2022-10-18T03:08:53;24.13;;;16.60;;
14510;SDS011;7341;50.930;4.038;2022-10-18T03:11:23;19.33;;;16.27;;
14510;SDS011;7341;50.930;4.038;2022-10-18T03:16:57;20.70;;;16.03;;
14510;SDS011;7341;50.930;4.038;2022-10-18T03:19:30;21.23;;;16.93;;
14510;SDS011;7341;50.930;4.038;2022-10-18T03:25:13;18.77;;;16.03;;
14510;SDS011;7341;50.930;4.038;2022-10-18T03:30:51;19.37;;;15.30;;
14510;SDS011;7341;50.930;4.038;2022-10-18T03:36:22;16.87;;;14.50;;
14510;SDS011;7341;50.930;4.038;2022-10-18T03:42:11;21.40;;;14.90;;
14510;SDS011;7341;50.930;4.038;2022-10-18T03:45:13;21.07;;;14.33;;
14510;SDS011;7341;50.930;4.038;2022-10-18T03:47:51;20.00;;;14.10;;
14510;SDS011;7341;50.930;4.038;2022-10-18T03:50:26;19.40;;;14.03;;
14510;SDS011;7341;50.930;4.038;2022-10-18T03:52:55;16.77;;;13.97;;
14510;SDS011;7341;50.930;4.038;2022-10-18T04:01:36;14.57;;;12.73;;
14510;SDS011;7341;50.930;4.038;2022-10-18T04:04:03;17.00;;;12.07;;
14510;SDS011;7341;50.930;4.038;2022-10-18T04:09:00;23.67;;;14.20;;
14510;SDS011;7341;50.930;4.038;2022-10-18T04:11:32;19.27;;;12.93;;
14510;SDS011;7341;50.930;4.038;2022-10-18T04:14:02;18.27;;;12.73;;
14510;SDS011;7341;50.930;4.038;2022-10-18T04:16:31;17.67;;;13.27;;
14510;SDS011;7341;50.930;4.038;2022-10-18T04:19:00;18.77;;;13.20;;
14510;SDS011;7341;50.930;4.038;2022-10-18T04:21:26;16.83;;;13.33;;
14510;SDS011;7341;50.930;4.038;2022-10-18T04:23:55;20.20;;;13.17;;
14510;SDS011;7341;50.930;4.038;2022-10-18T04:26:28;15.67;;;13.93;;
14510;SDS011;7341;50.930;4.038;2022-10-18T04:29:00;21.73;;;13.43;;
14510;SDS011;7341;50.930;4.038;2022-10-18T04:31:30;17.23;;;13.90;;
14510;SDS011;7341;50.930;4.038;2022-10-18T04:34:04;20.50;;;14.17;;
14510;SDS011;7341;50.930;4.038;2022-10-18T04:36:33;15.97;;;13.03;;
14510;SDS011;7341;50.930;4.038;2022-10-18T04:39:06;20.67;;;14.65;;
14510;SDS011;7341;50.930;4.038;2022-10-18T04:41:34;16.77;;;13.60;;
14510;SDS011;7341;50.930;4.038;2022-10-18T04:44:07;16.00;;;12.70;;
14510;SDS011;7341;50.930;4.038;2022-10-18T04:46:34;19.70;;;13.60;;
14510;SDS011;7341;50.930;4.038;2022-10-18T04:57:26;17.37;;;13.90;;
14510;SDS011;7341;50.930;4.038;2022-10-18T04:59:52;17.50;;;13.37;;
14510;SDS011;7341;50.930;4.038;2022-10-18T05:02:25;20.20;;;13.83;;
14510;SDS011;7341;50.930;4.038;2022-10-18T05:04:54;17.93;;;13.33;;
14510;SDS011;7341;50.930;4.038;2022-10-18T05:07:25;22.33;;;13.70;;
14510;SDS011;7341;50.930;4.038;2022-10-18T05:09:52;23.70;;;13.80;;
14510;SDS011;7341;50.930;4.038;2022-10-18T05:12:21;17.30;;;13.57;;
14510;SDS011;7341;50.930;4.038;2022-10-18T05:14:48;25.77;;;14.70;;
14510;SDS011;7341;50.930;4.038;2022-10-18T05:17:20;20.10;;;14.03;;
14510;SDS011;7341;50.930;4.038;2022-10-18T05:19:47;16.53;;;13.13;;
14510;SDS011;7341;50.930;4.038;2022-10-18T05:22:16;20.40;;;14.23;;
14510;SDS011;7341;50.930;4.038;2022-10-18T05:24:50;17.67;;;13.63;;
14510;SDS011;7341;50.930;4.038;2022-10-18T05:27:23;19.20;;;14.70;;
14510;SDS011;7341;50.930;4.038;2022-10-18T05:32:36;19.40;;;15.20;;
14510;SDS011;7341;50.930;4.038;2022-10-18T05:35:03;25.73;;;15.43;;
14510;SDS011;7341;50.930;4.038;2022-10-18T05:37:30;19.40;;;14.03;;
14510;SDS011;7341;50.930;4.038;2022-10-18T05:40:02;19.53;;;15.13;;
14510;SDS011;7341;50.930;4.038;2022-10-18T05:42:31;28.47;;;15.57;;
14510;SDS011;7341;50.930;4.038;2022-10-18T05:47:28;25.87;;;15.90;;
14510;SDS011;7341;50.930;4.038;2022-10-18T05:49:57;24.17;;;16.23;;
14510;SDS011;7341;50.930;4.038;2022-10-18T05:52:23;22.90;;;16.03;;
14510;SDS011;7341;50.930;4.038;2022-10-18T05:54:56;25.33;;;16.00;;
14510;SDS011;7341;50.930;4.038;2022-10-18T05:57:42;25.55;;;16.90;;
14510;SDS011;7341;50.930;4.038;2022-10-18T06:00:09;22.60;;;16.00;;
14510;SDS011;7341;50.930;4.038;2022-10-18T06:05:13;27.67;;;16.57;;
14510;SDS011;7341;50.930;4.038;2022-10-18T06:07:40;30.27;;;16.70;;
14510;SDS011;7341;50.930;4.038;2022-10-18T06:10:13;23.07;;;16.03;;
14510;SDS011;7341;50.930;4.038;2022-10-18T06:12:45;20.07;;;15.67;;
14510;SDS011;7341;50.930;4.038;2022-10-18T06:17:47;23.37;;;16.23;;
14510;SDS011;7341;50.930;4.038;2022-10-18T06:20:15;25.63;;;16.20;;
14510;SDS011;7341;50.930;4.038;2022-10-18T06:22:58;25.50;;;16.03;;
14510;SDS011;7341;50.930;4.038;2022-10-18T06:25:31;38.17;;;23.67;;
14510;SDS011;7341;50.930;4.038;2022-10-18T06:27:59;34.03;;;20.00;;
14510;SDS011;7341;50.930;4.038;2022-10-18T06:30:31;29.63;;;18.40;;
14510;SDS011;7341;50.930;4.038;2022-10-18T06:33:00;31.40;;;18.50;;
14510;SDS011;7341;50.930;4.038;2022-10-18T06:35:30;27.13;;;18.50;;
14510;SDS011;7341;50.930;4.038;2022-10-18T06:38:00;33.87;;;18.60;;
14510;SDS011;7341;50.930;4.038;2022-10-18T06:40:27;35.20;;;20.07;;
14510;SDS011;7341;50.930;4.038;2022-10-18T06:43:08;25.10;;;18.47;;
14510;SDS011;7341;50.930;4.038;2022-10-18T06:45:41;28.27;;;18.73;;
14510;SDS011;7341;50.930;4.038;2022-10-18T06:48:10;31.83;;;20.43;;
14510;SDS011;7341;50.930;4.038;2022-10-18T06:50:38;29.00;;;18.20;;
14510;SDS011;7341;50.930;4.038;2022-10-18T06:53:07;27.77;;;17.17;;
14510;SDS011;7341;50.930;4.038;2022-10-18T06:55:35;25.27;;;17.53;;
14510;SDS011;7341;50.930;4.038;2022-10-18T06:58:02;29.07;;;18.77;;
14510;SDS011;7341;50.930;4.038;2022-10-18T07:00:34;25.03;;;19.03;;
14510;SDS011;7341;50.930;4.038;2022-10-18T07:03:02;33.37;;;19.17;;
14510;SDS011;7341;50.930;4.038;2022-10-18T07:05:29;26.47;;;18.30;;
14510;SDS011;7341;50.930;4.038;2022-10-18T07:08:02;30.77;;;18.80;;
14510;SDS011;7341;50.930;4.038;2022-10-18T07:10:35;34.63;;;25.87;;
14510;SDS011;7341;50.930;4.038;2022-10-18T07:13:10;33.67;;;26.80;;
14510;SDS011;7341;50.930;4.038;2022-10-18T07:18:09;44.58;;;32.83;;
14510;SDS011;7341;50.930;4.038;2022-10-18T07:20:39;41.97;;;29.87;;
14510;SDS011;7341;50.930;4.038;2022-10-18T07:23:08;35.70;;;23.97;;
14510;SDS011;7341;50.930;4.038;2022-10-18T07:25:41;42.07;;;26.23;;
14510;SDS011;7341;50.930;4.038;2022-10-18T07:28:14;36.80;;;25.40;;
14510;SDS011;7341;50.930;4.038;2022-10-18T07:30:43;44.20;;;24.80;;
14510;SDS011;7341;50.930;4.038;2022-10-18T07:35:42;37.23;;;24.60;;
14510;SDS011;7341;50.930;4.038;2022-10-18T07:38:12;42.90;;;25.67;;
14510;SDS011;7341;50.930;4.038;2022-10-18T07:40:45;37.90;;;25.40;;
14510;SDS011;7341;50.930;4.038;2022-10-18T07:43:28;41.00;;;25.23;;
14510;SDS011;7341;50.930;4.038;2022-10-18T07:46:02;38.20;;;24.93;;
14510;SDS011;7341;50.930;4.038;2022-10-18T07:48:33;39.33;;;24.17;;
14510;SDS011;7341;50.930;4.038;2022-10-18T07:51:01;49.67;;;26.93;;
14510;SDS011;7341;50.930;4.038;2022-10-18T07:53:30;42.90;;;25.23;;
14510;SDS011;7341;50.930;4.038;2022-10-18T07:58:29;43.87;;;25.20;;
14510;SDS011;7341;50.930;4.038;2022-10-18T08:01:02;43.93;;;24.10;;
14510;SDS011;7341;50.930;4.038;2022-10-18T08:03:29;32.67;;;23.17;;
14510;SDS011;7341;50.930;4.038;2022-10-18T08:05:56;33.73;;;22.10;;
14510;SDS011;7341;50.930;4.038;2022-10-18T08:08:26;35.83;;;23.70;;
14510;SDS011;7341;50.930;4.038;2022-10-18T08:11:00;37.67;;;23.23;;
14510;SDS011;7341;50.930;4.038;2022-10-18T08:13:28;32.87;;;19.93;;
14510;SDS011;7341;50.930;4.038;2022-10-18T08:16:03;29.63;;;20.23;;
14510;SDS011;7341;50.930;4.038;2022-10-18T08:18:34;28.13;;;19.67;;
14510;SDS011;7341;50.930;4.038;2022-10-18T08:21:09;35.70;;;21.63;;
14510;SDS011;7341;50.930;4.038;2022-10-18T08:23:37;23.13;;;18.80;;
14510;SDS011;7341;50.930;4.038;2022-10-18T08:26:05;27.90;;;19.30;;
14510;SDS011;7341;50.930;4.038;2022-10-18T08:28:33;30.63;;;18.27;;
14510;SDS011;7341;50.930;4.038;2022-10-18T08:31:03;31.97;;;16.87;;
14510;SDS011;7341;50.930;4.038;2022-10-18T08:33:31;27.13;;;17.37;;
14510;SDS011;7341;50.930;4.038;2022-10-18T08:36:00;24.33;;;16.80;;
14510;SDS011;7341;50.930;4.038;2022-10-18T08:38:31;21.07;;;15.77;;
14510;SDS011;7341;50.930;4.038;2022-10-18T08:40:58;24.70;;;14.77;;
14510;SDS011;7341;50.930;4.038;2022-10-18T08:43:31;25.60;;;15.60;;
14510;SDS011;7341;50.930;4.038;2022-10-18T08:49:28;22.87;;;13.63;;
14510;SDS011;7341;50.930;4.038;2022-10-18T08:52:05;22.27;;;12.83;;
14510;SDS011;7341;50.930;4.038;2022-10-18T08:54:48;21.60;;;12.07;;
14510;SDS011;7341;50.930;4.038;2022-10-18T08:57:22;21.53;;;11.53;;
14510;SDS011;7341;50.930;4.038;2022-10-18T08:59:50;21.33;;;11.57;;
14510;SDS011;7341;50.930;4.038;2022-10-18T09:02:25;19.97;;;10.93;;
14510;SDS011;7341;50.930;4.038;2022-10-18T09:05:03;20.40;;;10.67;;
14510;SDS011;7341;50.930;4.038;2022-10-18T09:07:47;25.00;;;11.10;;
14510;SDS011;7341;50.930;4.038;2022-10-18T09:10:40;20.70;;;11.17;;
14510;SDS011;7341;50.930;4.038;2022-10-18T09:13:16;23.30;;;11.17;;
14510;SDS011;7341;50.930;4.038;2022-10-18T09:16:01;21.37;;;11.27;;
14510;SDS011;7341;50.930;4.038;2022-10-18T09:18:47;18.70;;;10.37;;
14510;SDS011;7341;50.930;4.038;2022-10-18T09:21:26;26.20;;;10.53;;
14510;SDS011;7341;50.930;4.038;2022-10-18T09:24:08;16.87;;;8.73;;
14510;SDS011;7341;50.930;4.038;2022-10-18T09:26:42;19.23;;;9.33;;
14510;SDS011;7341;50.930;4.038;2022-10-18T09:29:23;22.03;;;8.60;;
14510;SDS011;7341;50.930;4.038;2022-10-18T09:32:01;17.30;;;7.80;;
14510;SDS011;7341;50.930;4.038;2022-10-18T09:34:35;20.83;;;8.20;;
14510;SDS011;7341;50.930;4.038;2022-10-18T09:37:13;22.90;;;9.67;;
14510;SDS011;7341;50.930;4.038;2022-10-18T09:39:47;19.03;;;8.43;;
14510;SDS011;7341;50.930;4.038;2022-10-18T09:42:22;25.40;;;9.13;;
14510;SDS011;7341;50.930;4.038;2022-10-18T09:45:05;22.20;;;8.73;;
14510;SDS011;7341;50.930;4.038;2022-10-18T09:47:43;18.27;;;8.83;;
14510;SDS011;7341;50.930;4.038;2022-10-18T09:50:14;17.43;;;8.60;;
14510;SDS011;7341;50.930;4.038;2022-10-18T09:52:51;20.40;;;7.40;;
14510;SDS011;7341;50.930;4.038;2022-10-18T09:55:29;19.97;;;7.13;;
14510;SDS011;7341;50.930;4.038;2022-10-18T09:58:00;15.27;;;7.20;;
14510;SDS011;7341;50.930;4.038;2022-10-18T10:00:32;14.97;;;7.10;;
14510;SDS011;7341;50.930;4.038;2022-10-18T10:03:06;20.37;;;7.37;;
14510;SDS011;7341;50.930;4.038;2022-10-18T10:05:36;22.43;;;9.30;;
14510;SDS011;7341;50.930;4.038;2022-10-18T10:08:04;23.03;;;9.77;;
14510;SDS011;7341;50.930;4.038;2022-10-18T10:10:31;19.47;;;9.90;;
14510;SDS011;7341;50.930;4.038;2022-10-18T10:13:02;20.70;;;10.17;;
14510;SDS011;7341;50.930;4.038;2022-10-18T10:15:30;17.70;;;9.83;;
14510;SDS011;7341;50.930;4.038;2022-10-18T10:18:00;22.33;;;9.03;;
14510;SDS011;7341;50.930;4.038;2022-10-18T10:20:32;18.90;;;12.97;;
14510;SDS011;7341;50.930;4.038;2022-10-18T10:23:07;16.17;;;10.70;;
14510;SDS011;7341;50.930;4.038;2022-10-18T10:25:38;18.40;;;11.70;;
14510;SDS011;7341;50.930;4.038;2022-10-18T10:28:11;21.67;;;12.23;;
14510;SDS011;7341;50.930;4.038;2022-10-18T10:30:40;24.53;;;15.37;;
14510;SDS011;7341;50.930;4.038;2022-10-18T10:33:09;18.57;;;14.73;;
14510;SDS011;7341;50.930;4.038;2022-10-18T10:35:59;20.07;;;12.10;;
14510;SDS011;7341;50.930;4.038;2022-10-18T10:38:28;20.50;;;13.10;;
14510;SDS011;7341;50.930;4.038;2022-10-18T10:40:57;15.03;;;11.10;;
14510;SDS011;7341;50.930;4.038;2022-10-18T10:43:25;20.57;;;10.33;;
14510;SDS011;7341;50.930;4.038;2022-10-18T10:45:58;19.37;;;9.73;;
14510;SDS011;7341;50.930;4.038;2022-10-18T10:48:29;17.50;;;8.93;;
14510;SDS011;7341;50.930;4.038;2022-10-18T10:50:59;17.00;;;8.67;;
14510;SDS011;7341;50.930;4.038;2022-10-18T10:53:35;20.73;;;9.30;;
14510;SDS011;7341;50.930;4.038;2022-10-18T10:56:17;23.63;;;9.23;;
14510;SDS011;7341;50.930;4.038;2022-10-18T10:58:51;18.87;;;8.70;;
14510;SDS011;7341;50.930;4.038;2022-10-18T11:01:23;14.97;;;7.23;;
14510;SDS011;7341;50.930;4.038;2022-10-18T11:03:53;15.77;;;7.32;;
14510;SDS011;7341;50.930;4.038;2022-10-18T11:06:25;14.63;;;8.10;;
14510;SDS011;7341;50.930;4.038;2022-10-18T11:09:03;15.67;;;7.67;;
14510;SDS011;7341;50.930;4.038;2022-10-18T11:11:42;14.40;;;5.63;;
14510;SDS011;7341;50.930;4.038;2022-10-18T11:14:19;11.40;;;5.20;;
14510;SDS011;7341;50.930;4.038;2022-10-18T11:16:53;15.17;;;7.33;;
14510;SDS011;7341;50.930;4.038;2022-10-18T11:19:31;18.47;;;7.40;;
14510;SDS011;7341;50.930;4.038;2022-10-18T11:22:08;15.47;;;6.67;;
14510;SDS011;7341;50.930;4.038;2022-10-18T11:24:42;12.50;;;6.83;;
14510;SDS011;7341;50.930;4.038;2022-10-18T11:29:44;18.50;;;8.17;;
14510;SDS011;7341;50.930;4.038;2022-10-18T11:32:18;17.47;;;7.37;;
14510;SDS011;7341;50.930;4.038;2022-10-18T11:34:53;15.33;;;8.23;;
14510;SDS011;7341;50.930;4.038;2022-10-18T11:37:33;19.83;;;7.57;;
14510;SDS011;7341;50.930;4.038;2022-10-18T11:40:26;18.00;;;7.90;;
14510;SDS011;7341;50.930;4.038;2022-10-18T11:43:14;14.20;;;7.27;;
14510;SDS011;7341;50.930;4.038;2022-10-18T11:45:48;15.43;;;7.47;;
14510;SDS011;7341;50.930;4.038;2022-10-18T11:48:34;14.00;;;7.40;;
14510;SDS011;7341;50.930;4.038;2022-10-18T11:51:14;14.17;;;6.80;;
14510;SDS011;7341;50.930;4.038;2022-10-18T11:53:52;15.87;;;6.60;;
14510;SDS011;7341;50.930;4.038;2022-10-18T11:56:32;16.47;;;7.17;;
14510;SDS011;7341;50.930;4.038;2022-10-18T11:59:11;21.10;;;7.53;;
14510;SDS011;7341;50.930;4.038;2022-10-18T12:02:00;14.60;;;6.87;;
14510;SDS011;7341;50.930;4.038;2022-10-18T12:04:43;13.53;;;6.50;;
14510;SDS011;7341;50.930;4.038;2022-10-18T12:07:16;11.67;;;6.37;;
14510;SDS011;7341;50.930;4.038;2022-10-18T12:09:46;10.93;;;5.97;;
14510;SDS011;7341;50.930;4.038;2022-10-18T12:12:18;13.20;;;6.37;;
14510;SDS011;7341;50.930;4.038;2022-10-18T12:14:48;12.77;;;5.40;;
14510;SDS011;7341;50.930;4.038;2022-10-18T12:17:24;14.13;;;5.07;;
14510;SDS011;7341;50.930;4.038;2022-10-18T12:22:34;10.77;;;3.93;;
14510;SDS011;7341;50.930;4.038;2022-10-18T12:27:39;12.07;;;5.87;;
14510;SDS011;7341;50.930;4.038;2022-10-18T12:30:19;14.90;;;5.23;;
14510;SDS011;7341;50.930;4.038;2022-10-18T12:33:00;12.67;;;5.23;;
14510;SDS011;7341;50.930;4.038;2022-10-18T12:35:33;10.53;;;3.87;;
14510;SDS011;7341;50.930;4.038;2022-10-18T12:38:14;11.47;;;3.63;;
14510;SDS011;7341;50.930;4.038;2022-10-18T12:40:52;13.17;;;4.23;;
14510;SDS011;7341;50.930;4.038;2022-10-18T12:43:22;12.83;;;4.07;;
14510;SDS011;7341;50.930;4.038;2022-10-18T12:45:51;13.13;;;4.27;;
14510;SDS011;7341;50.930;4.038;2022-10-18T12:48:30;13.50;;;4.30;;
14510;SDS011;7341;50.930;4.038;2022-10-18T12:50:59;10.53;;;3.70;;
14510;SDS011;7341;50.930;4.038;2022-10-18T12:53:30;15.90;;;4.70;;
14510;SDS011;7341;50.930;4.038;2022-10-18T13:02:13;9.67;;;3.50;;
14510;SDS011;7341;50.930;4.038;2022-10-18T13:04:52;13.10;;;4.10;;
14510;SDS011;7341;50.930;4.038;2022-10-18T13:07:33;11.80;;;4.47;;
14510;SDS011;7341;50.930;4.038;2022-10-18T13:13:12;13.07;;;3.60;;
14510;SDS011;7341;50.930;4.038;2022-10-18T13:16:00;11.30;;;3.73;;
14510;SDS011;7341;50.930;4.038;2022-10-18T13:18:31;10.93;;;3.17;;
14510;SDS011;7341;50.930;4.038;2022-10-18T13:21:09;12.47;;;3.40;;
14510;SDS011;7341;50.930;4.038;2022-10-18T13:23:46;12.97;;;3.67;;
14510;SDS011;7341;50.930;4.038;2022-10-18T13:26:36;9.30;;;3.03;;
14510;SDS011;7341;50.930;4.038;2022-10-18T13:29:17;9.93;;;2.87;;
14510;SDS011;7341;50.930;4.038;2022-10-18T13:31:57;13.00;;;3.13;;
14510;SDS011;7341;50.930;4.038;2022-10-18T13:34:30;16.90;;;3.07;;
14510;SDS011;7341;50.930;4.038;2022-10-18T13:37:00;11.17;;;3.50;;
14510;SDS011;7341;50.930;4.038;2022-10-18T13:39:35;16.67;;;3.63;;
14510;SDS011;7341;50.930;4.038;2022-10-18T13:42:27;7.57;;;3.03;;
14510;SDS011;7341;50.930;4.038;2022-10-18T13:47:56;12.43;;;3.83;;
14510;SDS011;7341;50.930;4.038;2022-10-18T13:50:44;23.87;;;11.63;;
14510;SDS011;7341;50.930;4.038;2022-10-18T13:53:18;17.47;;;4.30;;
14510;SDS011;7341;50.930;4.038;2022-10-18T13:56:12;12.43;;;4.23;;
14510;SDS011;7341;50.930;4.038;2022-10-18T13:58:53;16.10;;;3.80;;
14510;SDS011;7341;50.930;4.038;2022-10-18T14:01:35;10.50;;;3.23;;
14510;SDS011;7341;50.930;4.038;2022-10-18T14:07:07;7.73;;;3.30;;
14510;SDS011;7341;50.930;4.038;2022-10-18T14:09:42;12.00;;;3.50;;
14510;SDS011;7341;50.930;4.038;2022-10-18T14:12:15;15.43;;;4.37;;
14510;SDS011;7341;50.930;4.038;2022-10-18T14:14:50;14.50;;;5.47;;
14510;SDS011;7341;50.930;4.038;2022-10-18T14:17:24;15.37;;;5.50;;
14510;SDS011;7341;50.930;4.038;2022-10-18T14:19:58;11.03;;;5.40;;
14510;SDS011;7341;50.930;4.038;2022-10-18T14:22:33;16.33;;;5.40;;
14510;SDS011;7341;50.930;4.038;2022-10-18T14:25:17;14.43;;;5.57;;
14510;SDS011;7341;50.930;4.038;2022-10-18T14:27:46;10.97;;;5.17;;
14510;SDS011;7341;50.930;4.038;2022-10-18T14:30:14;15.13;;;5.73;;
14510;SDS011;7341;50.930;4.038;2022-10-18T14:32:43;18.03;;;6.23;;
14510;SDS011;7341;50.930;4.038;2022-10-18T14:35:19;15.13;;;5.27;;
14510;SDS011;7341;50.930;4.038;2022-10-18T14:37:49;13.33;;;6.13;;
14510;SDS011;7341;50.930;4.038;2022-10-18T14:40:28;14.13;;;5.50;;
14510;SDS011;7341;50.930;4.038;2022-10-18T14:43:00;20.53;;;5.77;;
14510;SDS011;7341;50.930;4.038;2022-10-18T14:45:28;11.43;;;4.50;;
14510;SDS011;7341;50.930;4.038;2022-10-18T14:48:03;11.43;;;3.77;;
14510;SDS011;7341;50.930;4.038;2022-10-18T14:50:32;14.33;;;4.40;;
14510;SDS011;7341;50.930;4.038;2022-10-18T14:53:03;10.27;;;3.83;;
14510;SDS011;7341;50.930;4.038;2022-10-18T14:55:31;8.23;;;3.73;;
14510;SDS011;7341;50.930;4.038;2022-10-18T14:57:58;16.13;;;5.00;;
14510;SDS011;7341;50.930;4.038;2022-10-18T15:00:27;11.20;;;4.60;;
14510;SDS011;7341;50.930;4.038;2022-10-18T15:02:59;15.07;;;4.20;;
14510;SDS011;7341;50.930;4.038;2022-10-18T15:05:26;10.43;;;3.97;;
14510;SDS011;7341;50.930;4.038;2022-10-18T15:07:55;9.87;;;3.30;;
14510;SDS011;7341;50.930;4.038;2022-10-18T15:10:25;6.57;;;2.87;;
14510;SDS011;7341;50.930;4.038;2022-10-18T15:12:55;9.00;;;2.73;;
14510;SDS011;7341;50.930;4.038;2022-10-18T15:15:27;10.73;;;3.07;;
14510;SDS011;7341;50.930;4.038;2022-10-18T15:17:55;11.27;;;3.10;;
14510;SDS011;7341;50.930;4.038;2022-10-18T15:20:24;12.10;;;3.33;;
14510;SDS011;7341;50.930;4.038;2022-10-18T15:22:52;7.90;;;3.07;;
14510;SDS011;7341;50.930;4.038;2022-10-18T15:25:41;9.13;;;2.90;;
14510;SDS011;7341;50.930;4.038;2022-10-18T15:28:15;10.90;;;2.87;;
14510;SDS011;7341;50.930;4.038;2022-10-18T15:30:49;9.83;;;2.63;;
14510;SDS011;7341;50.930;4.038;2022-10-18T15:33:19;12.67;;;2.77;;
14510;SDS011;7341;50.930;4.038;2022-10-18T15:35:48;10.03;;;2.77;;
14510;SDS011;7341;50.930;4.038;2022-10-18T15:38:23;9.60;;;2.73;;
14510;SDS011;7341;50.930;4.038;2022-10-18T15:40:51;10.57;;;2.73;;
14510;SDS011;7341;50.930;4.038;2022-10-18T15:43:32;7.83;;;2.23;;
14510;SDS011;7341;50.930;4.038;2022-10-18T15:46:02;8.80;;;2.77;;
14510;SDS011;7341;50.930;4.038;2022-10-18T15:48:30;10.37;;;2.63;;
14510;SDS011;7341;50.930;4.038;2022-10-18T15:51:01;13.07;;;2.60;;
14510;SDS011;7341;50.930;4.038;2022-10-18T15:56:26;11.60;;;2.40;;
14510;SDS011;7341;50.930;4.038;2022-10-18T15:58:55;12.93;;;2.40;;
14510;SDS011;7341;50.930;4.038;2022-10-18T16:01:26;8.80;;;2.23;;
14510;SDS011;7341;50.930;4.038;2022-10-18T16:04:08;11.17;;;2.67;;
14510;SDS011;7341;50.930;4.038;2022-10-18T16:06:42;11.27;;;2.83;;
14510;SDS011;7341;50.930;4.038;2022-10-18T16:09:10;13.60;;;2.63;;
14510;SDS011;7341;50.930;4.038;2022-10-18T16:11:41;9.60;;;2.80;;
14510;SDS011;7341;50.930;4.038;2022-10-18T16:14:08;10.30;;;2.83;;
14510;SDS011;7341;50.930;4.038;2022-10-18T16:16:35;9.17;;;2.50;;
14510;SDS011;7341;50.930;4.038;2022-10-18T16:19:02;7.97;;;2.53;;
14510;SDS011;7341;50.930;4.038;2022-10-18T16:21:29;8.43;;;2.63;;
14510;SDS011;7341;50.930;4.038;2022-10-18T16:23:58;11.70;;;2.70;;
14510;SDS011;7341;50.930;4.038;2022-10-18T16:26:27;6.93;;;2.40;;
14510;SDS011;7341;50.930;4.038;2022-10-18T16:28:55;9.37;;;2.60;;
14510;SDS011;7341;50.930;4.038;2022-10-18T16:31:23;9.17;;;2.47;;
14510;SDS011;7341;50.930;4.038;2022-10-18T16:33:51;8.60;;;2.70;;
14510;SDS011;7341;50.930;4.038;2022-10-18T16:36:26;16.60;;;2.80;;
14510;SDS011;7341;50.930;4.038;2022-10-18T16:39:02;13.93;;;2.80;;
14510;SDS011;7341;50.930;4.038;2022-10-18T16:41:34;11.63;;;2.27;;
14510;SDS011;7341;50.930;4.038;2022-10-18T16:44:06;9.30;;;2.43;;
14510;SDS011;7341;50.930;4.038;2022-10-18T16:46:33;9.87;;;2.50;;
14510;SDS011;7341;50.930;4.038;2022-10-18T16:49:02;18.47;;;2.70;;
14510;SDS011;7341;50.930;4.038;2022-10-18T16:51:29;13.50;;;3.00;;
14510;SDS011;7341;50.930;4.038;2022-10-18T16:53:57;9.03;;;2.50;;
14510;SDS011;7341;50.930;4.038;2022-10-18T16:56:30;10.90;;;2.33;;
14510;SDS011;7341;50.930;4.038;2022-10-18T16:59:03;9.77;;;2.57;;
14510;SDS011;7341;50.930;4.038;2022-10-18T17:01:32;12.70;;;3.07;;
14510;SDS011;7341;50.930;4.038;2022-10-18T17:03:59;11.90;;;2.73;;
14510;SDS011;7341;50.930;4.038;2022-10-18T17:06:27;12.43;;;2.90;;
14510;SDS011;7341;50.930;4.038;2022-10-18T17:08:56;10.07;;;2.30;;
14510;SDS011;7341;50.930;4.038;2022-10-18T17:11:24;7.83;;;2.40;;
14510;SDS011;7341;50.930;4.038;2022-10-18T17:13:54;11.73;;;2.87;;
14510;SDS011;7341;50.930;4.038;2022-10-18T17:16:23;11.63;;;2.93;;
14510;SDS011;7341;50.930;4.038;2022-10-18T17:18:52;12.77;;;3.00;;
14510;SDS011;7341;50.930;4.038;2022-10-18T17:21:19;11.33;;;2.60;;
14510;SDS011;7341;50.930;4.038;2022-10-18T17:23:46;12.97;;;2.80;;
14510;SDS011;7341;50.930;4.038;2022-10-18T17:26:14;11.90;;;2.90;;
14510;SDS011;7341;50.930;4.038;2022-10-18T17:28:42;10.07;;;2.87;;
14510;SDS011;7341;50.930;4.038;2022-10-18T17:31:09;12.80;;;2.70;;
14510;SDS011;7341;50.930;4.038;2022-10-18T17:33:39;13.17;;;2.67;;
14510;SDS011;7341;50.930;4.038;2022-10-18T17:36:06;9.53;;;2.87;;
14510;SDS011;7341;50.930;4.038;2022-10-18T17:38:45;14.13;;;3.70;;
14510;SDS011;7341;50.930;4.038;2022-10-18T17:41:47;13.67;;;2.70;;
14510;SDS011;7341;50.930;4.038;2022-10-18T17:44:20;9.87;;;2.63;;
14510;SDS011;7341;50.930;4.038;2022-10-18T17:46:46;10.43;;;2.63;;